Time;durP1;ratioP1;P1;durP2;ratioP2;P2;SDS_P1;SDS_P2;PMS_P1;PMS_P2;Temp;Humidity;BMP_temperature;BMP_pressure;BME280_temperature;BME280_humidity;BME280_pressure;Samples;Min_cycle;Max_cycle;Signal;HPM_P1;HPM_P2
2020/12/15 04:30:21;;;;;;;11.23;7.40;;;;;;;10.53;54.83;98322.59;8280413;23;21046;-84
2020/12/15 04:33:42;;;;;;;5.30;4.80;;;;;;;10.63;54.69;98341.84;6799675;29;20240;-82
2020/12/15 04:37:03;;;;;;;6.07;5.47;;;;;;;11.14;53.60;98348.72;6793371;29;20220;-82
2020/12/15 04:40:24;;;;;;;6.37;5.43;;;;;;;11.41;53.01;98341.22;6788802;29;20211;-82
2020/12/15 04:43:46;;;;;;;5.97;5.37;;;;;;;11.28;53.47;98341.34;6766072;29;20204;-81
2020/12/15 04:47:12;;;;;;;7.60;5.93;;;;;;;10.98;54.50;98351.13;6765219;29;20215;-82
2020/12/15 04:50:35;;;;;;;6.00;5.40;;;;;;;10.84;54.45;98317.19;6765154;29;20245;-81
2020/12/15 04:53:57;;;;;;;6.23;5.53;;;;;;;11.13;53.69;98306.59;6767986;29;20646;-81
2020/12/15 04:57:21;;;;;;;7.10;5.63;;;;;;;11.03;54.23;98340.53;6762213;29;20269;-83
2020/12/15 05:00:42;;;;;;;6.03;5.43;;;;;;;11.30;53.25;98340.09;6760898;29;20618;-82
2020/12/15 05:04:05;;;;;;;5.53;4.93;;;;;;;11.21;53.42;98321.69;6757146;29;20212;-80
2020/12/15 05:07:26;;;;;;;7.07;5.50;;;;;;;11.01;54.25;98312.94;6751830;29;20211;-81
2020/12/15 05:10:47;;;;;;;6.50;5.90;;;;;;;9.99;55.76;98223.38;6745390;29;20704;-80
2020/12/15 05:14:08;;;;;;;9.50;6.00;;;;;;;9.67;57.32;98301.59;6758923;29;20285;-80
2020/12/15 05:17:32;;;;;;;5.70;5.13;;;;;;;10.43;55.22;98351.88;6763375;29;20210;-80
2020/12/15 05:20:54;;;;;;;7.07;5.00;;;;;;;11.02;53.14;98339.69;6754328;29;20224;-81
2020/12/15 05:24:15;;;;;;;9.10;7.17;;;;;;;11.18;52.96;98347.25;6740394;29;20267;-80
2020/12/15 05:27:42;;;;;;;7.17;6.47;;;;;;;11.40;52.16;98339.59;6738937;29;20579;-80
2020/12/15 05:31:03;;;;;;;9.53;8.53;;;;;;;11.33;53.00;98341.53;6738468;29;20713;-80
2020/12/15 05:34:26;;;;;;;11.10;8.53;;;;;;;11.03;53.17;98294.66;6738366;29;20229;-80
2020/12/15 05:37:48;;;;;;;10.63;7.93;;;;;;;11.37;52.94;98323.81;6738020;29;20236;-81
2020/12/15 05:41:12;;;;;;;13.97;7.57;;;;;;;11.46;52.62;98354.91;6743579;29;20232;-80
2020/12/15 05:44:36;;;;;;;7.43;5.60;;;;;;;10.64;54.76;98359.66;6763694;29;20219;-81
2020/12/15 05:48:01;;;;;;;6.57;5.97;;;;;;;10.93;54.61;98343.69;6774114;29;20253;-81
2020/12/15 05:51:22;;;;;;;8.87;6.30;;;;;;;10.88;54.84;98324.66;6761822;29;20617;-80
2020/12/15 05:54:44;;;;;;;8.73;6.73;;;;;;;11.32;53.29;98342.53;6762047;29;20289;-80
2020/12/15 05:58:07;;;;;;;7.17;6.47;;;;;;;11.19;53.65;98338.09;6762970;29;20216;-81
2020/12/15 06:01:28;;;;;;;7.20;5.93;;;;;;;10.90;54.33;98302.84;6762701;29;20240;-81
2020/12/15 06:04:49;;;;;;;6.23;5.50;;;;;;;11.29;53.32;98343.00;6762830;29;20671;-81
2020/12/15 06:08:10;;;;;;;6.20;5.60;;;;;;;11.18;53.68;98344.56;6762763;29;20208;-81
2020/12/15 06:11:33;;;;;;;5.20;4.70;;;;;;;11.18;52.31;98335.63;6762063;29;20234;-81
2020/12/15 06:14:54;;;;;;;5.40;4.90;;;;;;;11.48;50.81;98342.81;6762725;29;20326;-81
2020/12/15 06:18:15;;;;;;;6.77;6.07;;;;;;;11.56;50.84;98303.94;6762153;29;20698;-81
2020/12/15 06:21:40;;;;;;;7.10;5.30;;;;;;;11.37;51.49;98315.72;6762851;29;20231;-81
2020/12/15 06:25:01;;;;;;;7.07;5.63;;;;;;;11.00;53.37;98343.66;6762735;29;20217;-81
2020/12/15 06:28:32;;;;;;;6.57;5.20;;;;;;;10.81;53.44;98333.84;6762902;29;20239;-81
2020/12/15 06:31:53;;;;;;;6.47;4.97;;;;;;;11.14;52.21;98308.25;6763285;29;20250;-80
2020/12/15 06:35:14;;;;;;;5.57;5.00;;;;;;;11.32;51.71;98331.75;6770398;29;20233;-80
2020/12/15 06:38:37;;;;;;;5.87;5.27;;;;;;;11.15;51.50;98299.09;6763785;29;20218;-80
2020/12/15 06:42:00;;;;;;;6.77;4.90;;;;;;;11.19;51.67;98315.69;6760554;29;20694;-82
2020/12/15 06:45:23;;;;;;;6.50;4.77;;;;;;;11.50;50.83;98335.31;6762528;29;20647;-80
2020/12/15 06:48:45;;;;;;;5.13;4.40;;;;;;;11.34;51.44;98335.06;6762246;29;20693;-80
2020/12/15 06:52:07;;;;;;;5.10;4.43;;;;;;;11.33;51.82;98347.72;6761383;29;20304;-80
2020/12/15 06:55:30;;;;;;;6.17;5.27;;;;;;;11.53;51.56;98343.00;6762123;29;20237;-81
2020/12/15 06:58:59;;;;;;;5.10;4.47;;;;;;;11.47;51.65;98343.88;6762469;29;20246;-79
2020/12/15 07:02:29;;;;;;;5.20;4.70;;;;;;;11.67;51.21;98352.63;6762949;29;20245;-80
2020/12/15 07:05:50;;;;;;;6.50;4.93;;;;;;;11.67;50.94;98347.25;6763677;29;20779;-79
2020/12/15 07:09:11;;;;;;;9.37;6.10;;;;;;;11.56;51.49;98358.72;6763073;29;20235;-80
2020/12/15 07:12:33;;;;;;;9.07;5.30;;;;;;;11.47;51.42;98348.44;6762709;29;20234;-79
2020/12/15 07:15:54;;;;;;;6.70;5.50;;;;;;;11.57;51.68;98356.88;6762689;29;20230;-79
2020/12/15 07:19:16;;;;;;;9.17;5.70;;;;;;;11.21;52.18;98336.00;6763320;29;20225;-80
2020/12/15 07:22:37;;;;;;;8.33;5.40;;;;;;;11.64;51.94;98353.06;6763290;29;20258;-80
2020/12/15 07:25:58;;;;;;;6.70;5.70;;;;;;;11.71;51.56;98364.66;6762723;29;20207;-79
2020/12/15 07:29:19;;;;;;;10.77;5.73;;;;;;;11.10;53.20;98366.38;6762871;29;20561;-80
2020/12/15 07:32:41;;;;;;;6.70;5.67;;;;;;;10.88;54.04;98370.50;6764980;29;20276;-81
2020/12/15 07:36:12;;;;;;;8.40;5.57;;;;;;;11.68;51.68;98375.88;6766876;29;20243;-81
2020/12/15 07:39:33;;;;;;;7.77;5.30;;;;;;;11.70;52.07;98387.28;6772185;29;20543;-81
2020/12/15 07:42:55;;;;;;;10.60;6.70;;;;;;;11.24;53.69;98394.94;6763646;29;20230;-80
2020/12/15 07:46:16;;;;;;;10.47;6.53;;;;;;;11.18;53.51;98397.66;6743318;29;20219;-80
2020/12/15 07:49:38;;;;;;;6.73;5.50;;;;;;;11.39;52.64;98375.72;6742372;29;20762;-80
2020/12/15 07:53:08;;;;;;;7.77;6.03;;;;;;;11.70;50.85;98348.66;6740665;29;20230;-81
2020/12/15 07:56:30;;;;;;;7.93;6.10;;;;;;;11.97;50.41;98383.28;6743037;29;20222;-81
2020/12/15 07:59:53;;;;;;;9.73;6.70;;;;;;;11.66;52.04;98374.47;6742010;29;20273;-80
2020/12/15 08:03:18;;;;;;;10.93;6.00;;;;;;;11.79;52.02;98385.97;6740264;29;20232;-81
2020/12/15 08:06:42;;;;;;;8.17;6.53;;;;;;;11.71;52.41;98386.25;6740901;29;20213;-81
2020/12/15 08:10:04;;;;;;;7.93;6.30;;;;;;;11.64;52.46;98401.66;6738884;29;20967;-81
2020/12/15 08:13:25;;;;;;;5.63;4.83;;;;;;;11.93;50.86;98397.47;6740229;29;20299;-81
2020/12/15 08:16:47;;;;;;;6.43;5.73;;;;;;;11.84;50.87;98361.81;6747775;29;20220;-81
2020/12/15 08:20:09;;;;;;;7.00;5.30;;;;;;;11.73;50.13;98376.06;6757080;29;20221;-81
2020/12/15 08:23:30;;;;;;;6.20;5.60;;;;;;;12.18;49.70;98393.66;6766371;29;20232;-81
2020/12/15 08:26:53;;;;;;;7.27;6.17;;;;;;;12.21;50.06;98397.78;6766195;29;20252;-81
2020/12/15 08:30:16;;;;;;;7.47;5.83;;;;;;;11.88;50.38;98387.34;6766174;29;20303;-81
2020/12/15 08:33:38;;;;;;;8.17;6.10;;;;;;;12.27;49.36;98397.69;6766443;29;20298;-81
2020/12/15 08:36:59;;;;;;;7.67;6.60;;;;;;;12.08;50.02;98395.22;6768173;29;20712;-80
2020/12/15 08:40:21;;;;;;;6.93;5.40;;;;;;;12.13;50.13;98423.22;6766023;29;20215;-80
2020/12/15 08:43:48;;;;;;;7.00;5.47;;;;;;;11.72;50.38;98414.91;6769432;29;20208;-80
2020/12/15 08:47:09;;;;;;;8.00;6.13;;;;;;;11.58;51.26;98416.06;6768056;29;20213;-80
2020/12/15 08:50:31;;;;;;;11.10;6.27;;;;;;;12.06;50.33;98435.16;6765888;29;20837;-81
2020/12/15 08:53:52;;;;;;;7.13;5.90;;;;;;;11.77;50.86;98433.13;6768046;29;20738;-81
2020/12/15 08:57:14;;;;;;;7.37;5.83;;;;;;;11.99;50.32;98431.69;6769177;29;20227;-80
2020/12/15 09:00:39;;;;;;;5.53;4.70;;;;;;;12.43;51.29;98437.66;6767573;29;20642;-81
2020/12/15 09:04:15;;;;;;;6.87;6.20;;;;;;;12.68;49.19;98416.75;6770686;29;20208;-80
2020/12/15 09:07:37;;;;;;;7.80;5.90;;;;;;;12.45;49.75;98434.72;6714549;29;20223;-80
2020/12/15 09:10:58;;;;;;;7.27;6.10;;;;;;;12.46;49.99;98444.50;6712592;29;20662;-81
2020/12/15 09:14:19;;;;;;;7.27;6.30;;;;;;;12.62;50.06;98447.41;6713512;29;20236;-80
2020/12/15 09:17:41;;;;;;;6.53;5.60;;;;;;;12.53;49.34;98440.66;6711045;29;20212;-81
2020/12/15 09:21:09;;;;;;;9.43;6.70;;;;;;;12.69;48.96;98439.22;6711172;29;20228;-82
2020/12/15 09:24:30;;;;;;;5.60;4.83;;;;;;;12.32;48.63;98407.81;6711221;29;20212;-79
2020/12/15 09:27:51;;;;;;;8.53;5.00;;;;;;;12.69;48.72;98423.78;6708332;29;20621;-80
2020/12/15 09:31:13;;;;;;;6.73;4.60;;;;;;;12.80;49.40;98454.69;6705864;29;20229;-82
2020/12/15 09:34:35;;;;;;;5.30;4.67;;;;;;;12.94;48.33;98453.44;6706594;29;20233;-79
2020/12/15 09:37:56;;;;;;;5.60;4.63;;;;;;;12.27;49.34;98432.84;6707869;29;20213;-81
2020/12/15 09:41:17;;;;;;;6.63;4.77;;;;;;;11.99;48.28;98400.06;6709404;29;20236;-79
2020/12/15 09:44:39;;;;;;;5.43;4.20;;;;;;;12.85;47.60;98443.97;6743463;29;20220;-81
2020/12/15 09:48:02;;;;;;;4.87;4.33;;;;;;;12.49;48.52;98430.50;6764845;29;20216;-80
2020/12/15 09:51:24;;;;;;;5.67;4.80;;;;;;;12.41;48.59;98439.78;6764783;29;20232;-80
2020/12/15 09:54:45;;;;;;;6.57;5.20;;;;;;;13.12;47.88;98446.16;6765055;29;20643;-80
2020/12/15 09:58:06;;;;;;;5.60;4.70;;;;;;;12.81;48.90;98424.69;6765970;29;20692;-80
2020/12/15 10:01:27;;;;;;;8.53;5.80;;;;;;;13.21;48.01;98420.41;6764145;29;20228;-80
2020/12/15 10:04:49;;;;;;;5.80;5.20;;;;;;;13.50;48.34;98434.94;6764547;29;20672;-80
2020/12/15 10:08:11;;;;;;;8.77;5.90;;;;;;;13.49;48.06;98439.56;6764853;29;20219;-80
2020/12/15 10:11:32;;;;;;;5.47;4.73;;;;;;;13.37;48.38;98443.28;6763505;29;20242;-81
2020/12/15 10:14:53;;;;;;;6.80;5.33;;;;;;;13.22;48.35;98422.03;6764679;29;20239;-80
2020/12/15 10:18:14;;;;;;;5.80;5.20;;;;;;;13.37;48.38;98427.88;6764411;29;20214;-80
2020/12/15 10:21:36;;;;;;;6.33;5.50;;;;;;;13.42;47.96;98422.59;6762951;29;20696;-80
2020/12/15 10:24:58;;;;;;;6.00;5.10;;;;;;;13.49;48.32;98431.44;6764448;29;20231;-80
2020/12/15 10:28:19;;;;;;;6.20;4.90;;;;;;;13.16;48.98;98416.75;6763661;29;20687;-80
2020/12/15 10:31:40;;;;;;;5.20;4.23;;;;;;;13.09;49.54;98413.31;6763544;29;20271;-83
2020/12/15 10:35:01;;;;;;;5.40;4.80;;;;;;;13.38;49.37;98410.56;6768155;29;20227;-82
2020/12/15 10:38:22;;;;;;;5.10;4.47;;;;;;;13.51;49.09;98407.63;6764235;29;20664;-80
2020/12/15 10:41:44;;;;;;;12.63;6.23;;;;;;;13.59;49.14;98404.59;6769059;29;20236;-82
2020/12/15 10:45:07;;;;;;;6.67;5.50;;;;;;;13.69;49.23;98404.03;6767942;29;20208;-80
2020/12/15 10:48:29;;;;;;;7.73;5.63;;;;;;;13.39;49.77;98409.50;6767407;29;20303;-81
2020/12/15 10:51:50;;;;;;;6.83;5.57;;;;;;;13.66;49.08;98407.19;6764348;29;20227;-79
2020/12/15 10:55:12;;;;;;;13.10;8.63;;;;;;;13.89;48.22;98410.75;6767533;29;20232;-81
2020/12/15 10:58:34;;;;;;;7.83;5.77;;;;;;;14.03;47.33;98425.69;6762772;29;20211;-79
2020/12/15 11:01:55;;;;;;;6.13;5.53;;;;;;;13.68;48.84;98427.56;6763392;29;20231;-80
2020/12/15 11:05:16;;;;;;;5.83;5.23;;;;;;;13.71;48.04;98421.69;6762976;29;20260;-79
2020/12/15 11:08:39;;;;;;;5.60;5.00;;;;;;;13.73;48.56;98427.69;6765845;29;20205;-80
2020/12/15 11:12:00;;;;;;;6.37;4.93;;;;;;;14.16;47.69;98441.72;6762815;29;20291;-80
2020/12/15 11:15:22;;;;;;;5.80;4.80;;;;;;;14.25;47.77;98436.78;6756769;29;20233;-80
2020/12/15 11:18:43;;;;;;;6.53;5.47;;;;;;;14.40;47.57;98429.81;6749427;29;20204;-80
2020/12/15 11:22:04;;;;;;;7.47;5.03;;;;;;;14.31;47.78;98416.88;6744077;29;20232;-79
2020/12/15 11:25:26;;;;;;;6.70;5.60;;;;;;;14.11;48.50;98432.66;6758953;29;20208;-77
2020/12/15 11:28:47;;;;;;;6.63;5.50;;;;;;;14.50;47.84;98419.19;6759582;29;20587;-78
2020/12/15 11:32:09;;;;;;;7.13;5.67;;;;;;;14.60;47.45;98421.28;6757638;29;20242;-76
2020/12/15 11:35:32;;;;;;;16.93;13.67;;;;;;;14.62;47.17;98394.75;6758081;29;20228;-76
2020/12/15 11:38:54;;;;;;;10.60;8.77;;;;;;;14.83;47.34;98411.22;6758227;29;20279;-76
2020/12/15 11:42:15;;;;;;;9.37;6.37;;;;;;;14.69;48.20;98409.81;6758142;29;20232;-78
2020/12/15 11:45:36;;;;;;;6.87;5.23;;;;;;;14.71;48.10;98429.41;6758476;29;20215;-75
2020/12/15 11:48:58;;;;;;;7.47;5.60;;;;;;;14.83;47.92;98418.50;6755048;29;20212;-76
2020/12/15 11:52:19;;;;;;;5.27;4.77;;;;;;;14.64;48.00;98417.03;6731842;29;20640;-78
2020/12/15 11:55:40;;;;;;;7.33;5.63;;;;;;;13.64;49.41;98399.28;6748858;29;20221;-77
2020/12/15 11:59:02;;;;;;;5.63;4.90;;;;;;;14.49;48.22;98431.09;6758155;29;20366;-76
2020/12/15 12:02:23;;;;;;;5.83;5.20;;;;;;;14.76;47.22;98404.25;6757547;29;20238;-76
2020/12/15 12:05:45;;;;;;;6.03;4.90;;;;;;;14.81;47.28;98407.88;6758090;29;20203;-77
2020/12/15 12:09:06;;;;;;;5.53;3.90;;;;;;;15.05;46.05;98416.78;6751955;29;20216;-76
2020/12/15 12:12:27;;;;;;;4.70;4.20;;;;;;;15.05;45.71;98412.16;6731970;29;20232;-77
2020/12/15 12:15:49;;;;;;;5.77;4.40;;;;;;;14.80;45.26;98410.88;6748460;29;20339;-79
2020/12/15 12:19:10;;;;;;;5.80;4.03;;;;;;;14.45;46.15;98419.09;6764965;29;20274;-77
2020/12/15 12:22:32;;;;;;;4.83;4.10;;;;;;;14.55;46.07;98419.31;6763206;29;20226;-77
2020/12/15 12:25:53;;;;;;;5.43;4.20;;;;;;;14.54;45.80;98409.53;6763990;29;20215;-77
2020/12/15 12:29:14;;;;;;;4.17;3.77;;;;;;;14.89;45.58;98414.81;6762713;29;20212;-79
2020/12/15 12:32:35;;;;;;;4.13;3.67;;;;;;;14.91;45.47;98399.94;6762120;29;20771;-77
2020/12/15 12:35:56;;;;;;;4.00;3.53;;;;;;;15.11;45.02;98411.19;6763427;29;20703;-76
2020/12/15 12:39:18;;;;;;;10.40;9.27;;;;;;;15.27;45.07;98431.31;6764148;29;20209;-76
2020/12/15 12:42:40;;;;;;;5.10;4.40;;;;;;;15.35;45.83;98429.06;6762112;29;20232;-78
2020/12/15 12:46:01;;;;;;;4.90;4.37;;;;;;;15.30;46.47;98438.97;6762456;29;20213;-75
2020/12/15 12:49:30;;;;;;;5.03;4.53;;;;;;;15.17;46.83;98431.13;6762209;29;20212;-78
2020/12/15 12:52:51;;;;;;;5.10;4.47;;;;;;;14.97;47.90;98437.00;6761319;29;20259;-76
2020/12/15 12:56:13;;;;;;;7.47;3.90;;;;;;;14.80;47.89;98448.84;6762185;29;20228;-78
2020/12/15 12:59:34;;;;;;;4.90;3.90;;;;;;;14.77;48.57;98455.59;6762379;29;20303;-78
2020/12/15 13:02:55;;;;;;;6.77;4.90;;;;;;;15.00;48.29;98435.69;6761708;29;20446;-76
2020/12/15 13:06:19;;;;;;;4.67;3.93;;;;;;;15.07;48.21;98428.22;6762381;29;20453;-76
2020/12/15 13:09:42;;;;;;;6.60;4.30;;;;;;;14.97;49.08;98437.00;6761328;29;20215;-77
2020/12/15 13:13:07;;;;;;;7.97;4.23;;;;;;;15.11;48.78;98435.63;6761965;29;20704;-77
2020/12/15 13:16:32;;;;;;;3.90;3.50;;;;;;;14.59;50.42;98444.91;6761615;29;20228;-76
2020/12/15 13:19:53;;;;;;;4.07;3.67;;;;;;;14.75;49.48;98456.91;6760948;29;20215;-77
2020/12/15 13:23:17;;;;;;;5.60;3.67;;;;;;;14.76;49.29;98455.81;6760931;29;20235;-76
2020/12/15 13:26:42;;;;;;;4.57;3.77;;;;;;;14.85;49.95;98459.78;6760507;29;20203;-76
2020/12/15 13:30:08;;;;;;;4.50;4.00;;;;;;;14.89;50.47;98455.53;6760953;29;20653;-77
2020/12/15 13:33:30;;;;;;;4.23;3.33;;;;;;;15.00;51.10;98443.81;6760801;29;20664;-78
2020/12/15 13:36:53;;;;;;;4.37;3.97;;;;;;;15.24;50.06;98454.34;6761225;29;20231;-76
2020/12/15 13:40:15;;;;;;;6.00;3.67;;;;;;;15.48;49.72;98447.78;6759947;29;20705;-76
2020/12/15 13:43:37;;;;;;;4.60;3.77;;;;;;;15.51;50.47;98460.03;6760456;29;20219;-77
2020/12/15 13:47:03;;;;;;;4.37;3.80;;;;;;;15.01;51.71;98464.47;6760773;29;20688;-76
2020/12/15 13:50:27;;;;;;;7.90;6.23;;;;;;;14.95;52.38;98466.28;6759893;29;20219;-76
2020/12/15 13:53:49;;;;;;;7.17;5.70;;;;;;;15.13;52.33;98468.81;6761099;29;20219;-76
2020/12/15 13:57:10;;;;;;;7.27;5.27;;;;;;;15.32;52.13;98474.84;6761055;29;20219;-76
2020/12/15 14:00:31;;;;;;;7.97;6.70;;;;;;;14.53;53.78;98485.72;6759596;29;20707;-76
2020/12/15 14:03:55;;;;;;;7.27;6.40;;;;;;;14.39;54.73;98477.00;6760552;29;20216;-79
2020/12/15 14:07:19;;;;;;;9.27;5.87;;;;;;;14.42;54.59;98456.72;6746926;29;20355;-76
2020/12/15 14:10:40;;;;;;;7.50;5.63;;;;;;;14.95;53.93;98496.13;6734015;29;20260;-76
2020/12/15 14:14:01;;;;;;;7.47;6.47;;;;;;;15.14;53.28;98494.91;6746030;29;20276;-79
2020/12/15 14:17:22;;;;;;;9.13;6.07;;;;;;;14.10;56.00;98487.94;6754058;29;20207;-76
2020/12/15 14:20:46;;;;;;;6.40;4.80;;;;;;;14.62;54.35;98498.66;6745960;29;20287;-76
2020/12/15 14:24:08;;;;;;;5.83;4.47;;;;;;;15.20;52.63;98512.09;6733444;29;20754;-79
2020/12/15 14:27:29;;;;;;;4.90;4.40;;;;;;;15.12;53.00;98526.06;6732996;29;20217;-76
2020/12/15 14:30:51;;;;;;;4.87;4.20;;;;;;;14.91;53.00;98516.69;6733621;29;20236;-77
2020/12/15 14:34:12;;;;;;;5.30;3.97;;;;;;;14.78;53.37;98527.81;6733675;29;20649;-77
2020/12/15 14:37:34;;;;;;;5.00;4.30;;;;;;;15.37;52.38;98532.03;6733671;29;20291;-76
2020/12/15 14:40:57;;;;;;;7.97;4.73;;;;;;;15.31;52.35;98527.53;6731943;29;20232;-77
2020/12/15 14:44:18;;;;;;;7.67;5.40;;;;;;;14.98;53.71;98527.41;6732825;29;20213;-77
2020/12/15 14:47:39;;;;;;;8.93;6.77;;;;;;;14.97;53.17;98532.00;6734079;29;20237;-76
2020/12/15 14:51:01;;;;;;;5.57;5.07;;;;;;;15.28;52.75;98512.53;6734787;29;20264;-78
2020/12/15 14:54:23;;;;;;;6.80;5.30;;;;;;;14.86;53.86;98537.47;6735788;29;20239;-77
2020/12/15 14:57:45;;;;;;;7.77;4.77;;;;;;;15.10;53.65;98529.00;6736125;29;20230;-78
2020/12/15 15:01:06;;;;;;;8.50;5.50;;;;;;;14.89;54.19;98548.66;6735112;29;20233;-77
2020/12/15 15:04:28;;;;;;;5.40;4.30;;;;;;;15.30;52.89;98555.78;6735142;29;20209;-78
2020/12/15 15:07:51;;;;;;;5.80;4.90;;;;;;;14.94;53.30;98559.66;6734505;29;21025;-77
2020/12/15 15:11:13;;;;;;;8.97;4.87;;;;;;;14.97;53.62;98555.59;6733688;29;20224;-78
2020/12/15 15:14:34;;;;;;;4.30;3.90;;;;;;;15.25;53.33;98569.25;6734919;29;20271;-77
2020/12/15 15:17:56;;;;;;;8.37;4.70;;;;;;;15.01;53.67;98549.47;6734234;29;20217;-77
2020/12/15 15:21:17;;;;;;;6.07;4.50;;;;;;;15.19;53.65;98573.75;6733136;29;20260;-77
2020/12/15 15:24:38;;;;;;;5.30;4.80;;;;;;;15.19;53.32;98540.31;6733426;29;20717;-77
2020/12/15 15:28:01;;;;;;;4.57;3.90;;;;;;;15.42;53.58;98579.16;6732228;29;20212;-77
2020/12/15 15:31:22;;;;;;;5.73;4.30;;;;;;;15.55;53.32;98570.72;6731622;29;20237;-79
2020/12/15 15:34:46;;;;;;;5.50;4.50;;;;;;;15.57;53.23;98581.34;6733892;29;20261;-78
2020/12/15 15:38:07;;;;;;;7.40;5.40;;;;;;;15.45;53.83;98588.72;6734208;29;20216;-76
2020/12/15 15:41:28;;;;;;;9.43;7.53;;;;;;;15.34;54.27;98581.44;6733540;29;20244;-77
2020/12/15 15:44:52;;;;;;;8.13;5.17;;;;;;;15.23;54.62;98579.53;6733693;29;20219;-77
2020/12/15 15:48:13;;;;;;;8.83;7.33;;;;;;;15.18;55.14;98595.72;6732520;29;20219;-77
2020/12/15 15:51:34;;;;;;;33.93;21.70;;;;;;;14.81;55.90;98587.00;6739768;29;20236;-80
2020/12/15 15:54:57;;;;;;;16.30;11.70;;;;;;;14.69;56.51;98598.97;6740719;29;20235;-77
2020/12/15 15:58:18;;;;;;;12.87;8.57;;;;;;;14.68;56.43;98602.75;6742080;29;20363;-77
2020/12/15 16:01:40;;;;;;;20.77;9.73;;;;;;;15.17;54.90;98607.66;6741544;29;20608;-77
2020/12/15 16:05:01;;;;;;;16.17;10.90;;;;;;;14.85;56.31;98603.66;6741767;29;20212;-79
2020/12/15 16:08:22;;;;;;;21.80;12.10;;;;;;;13.96;59.59;98609.31;6741793;29;20212;-77
2020/12/15 16:11:47;;;;;;;24.63;16.57;;;;;;;14.30;58.55;98621.31;6741357;29;20227;-78
2020/12/15 16:15:09;;;;;;;24.50;15.17;;;;;;;14.14;59.60;98619.25;6742844;29;20303;-77
2020/12/15 16:18:31;;;;;;;27.53;17.23;;;;;;;14.91;57.05;98625.25;6741418;29;20355;-76
2020/12/15 16:21:52;;;;;;;27.67;17.53;;;;;;;14.74;57.56;98626.22;6745862;29;20255;-77
2020/12/15 16:25:13;;;;;;;27.00;18.57;;;;;;;13.79;60.56;98621.84;6762283;29;20243;-76
2020/12/15 16:28:34;;;;;;;28.23;19.00;;;;;;;14.01;60.45;98631.13;6767530;29;20215;-76
2020/12/15 16:31:56;;;;;;;24.00;16.57;;;;;;;13.82;60.87;98613.28;6766534;29;20754;-76
2020/12/15 16:35:18;;;;;;;22.67;16.97;;;;;;;14.03;60.96;98639.00;6767923;29;20231;-76
2020/12/15 16:38:39;;;;;;;16.57;12.97;;;;;;;13.42;62.74;98636.53;6766502;29;20729;-78
2020/12/15 16:42:01;;;;;;;16.20;12.63;;;;;;;13.98;60.75;98634.28;6766633;29;20692;-77
2020/12/15 16:45:22;;;;;;;14.70;10.43;;;;;;;13.46;61.52;98615.22;6768603;29;20215;-78
2020/12/15 16:48:44;;;;;;;13.83;11.83;;;;;;;14.06;60.76;98643.97;6768021;29;20683;-76
2020/12/15 16:52:06;;;;;;;12.77;10.90;;;;;;;14.42;59.42;98639.28;6761650;29;20234;-77
2020/12/15 16:55:27;;;;;;;15.00;10.63;;;;;;;14.04;61.11;98644.22;6750878;29;20780;-76
2020/12/15 16:58:48;;;;;;;11.87;9.83;;;;;;;13.70;62.47;98657.63;6741978;29;20208;-76
2020/12/15 17:02:10;;;;;;;12.13;9.73;;;;;;;13.76;62.21;98657.53;6737309;29;20231;-76
2020/12/15 17:05:31;;;;;;;12.90;8.97;;;;;;;14.10;61.00;98666.88;6737493;29;20247;-75
2020/12/15 17:08:53;;;;;;;12.47;8.37;;;;;;;13.41;63.44;98656.53;6737762;29;20213;-76
2020/12/15 17:12:14;;;;;;;11.97;9.53;;;;;;;13.57;63.23;98664.03;6735484;29;20310;-76
2020/12/15 17:15:36;;;;;;;11.17;9.00;;;;;;;14.07;61.66;98654.59;6737820;29;20232;-77
2020/12/15 17:18:57;;;;;;;12.60;9.77;;;;;;;14.16;61.11;98664.03;6751779;29;20212;-79
2020/12/15 17:22:18;;;;;;;12.27;9.27;;;;;;;13.86;62.36;98662.41;6763201;29;20243;-76
2020/12/15 17:25:40;;;;;;;11.03;9.20;;;;;;;13.66;63.14;98664.53;6760720;29;20269;-76
2020/12/15 17:29:02;;;;;;;22.00;14.07;;;;;;;13.47;64.02;98673.75;6757528;29;20218;-75
2020/12/15 17:32:23;;;;;;;19.17;14.77;;;;;;;13.74;63.36;98665.06;6755125;29;20905;-75
2020/12/15 17:35:44;;;;;;;15.97;12.73;;;;;;;13.43;64.32;98675.25;6760317;29;20224;-79
2020/12/15 17:39:05;;;;;;;12.53;9.63;;;;;;;13.48;65.16;98669.97;6761070;29;20711;-76
2020/12/15 17:42:27;;;;;;;12.67;10.13;;;;;;;14.13;63.20;98669.94;6761385;29;20227;-78
2020/12/15 17:45:49;;;;;;;12.60;11.27;;;;;;;14.32;62.41;98685.13;6761009;29;20212;-78
2020/12/15 17:49:11;;;;;;;13.43;10.67;;;;;;;13.99;62.75;98671.19;6762619;29;20296;-76
2020/12/15 17:52:32;;;;;;;14.67;11.57;;;;;;;14.11;63.57;98688.31;6762422;29;20254;-75
2020/12/15 17:55:54;;;;;;;24.10;18.73;;;;;;;14.36;62.21;98675.47;6761970;29;20238;-75
2020/12/15 17:59:16;;;;;;;26.17;21.67;;;;;;;14.48;61.73;98684.47;6761787;29;20226;-76
2020/12/15 18:02:37;;;;;;;18.73;14.90;;;;;;;14.38;62.02;98684.19;6752392;29;20223;-75
2020/12/15 18:05:58;;;;;;;20.73;15.00;;;;;;;14.42;61.70;98687.28;6762455;29;20207;-76
2020/12/15 18:09:19;;;;;;;18.80;15.30;;;;;;;14.28;61.55;98662.22;6762144;29;20215;-76
2020/12/15 18:12:41;;;;;;;12.73;8.90;;;;;;;14.58;60.56;98681.19;6760218;29;20605;-75
2020/12/15 18:16:03;;;;;;;10.87;9.30;;;;;;;14.36;60.58;98683.63;6762093;29;21015;-77
2020/12/15 18:19:25;;;;;;;12.73;9.43;;;;;;;14.35;60.99;98689.25;6762083;29;20211;-75
2020/12/15 18:22:46;;;;;;;14.93;10.47;;;;;;;13.85;62.57;98682.41;6761090;29;20223;-75
2020/12/15 18:26:08;;;;;;;15.33;10.57;;;;;;;14.07;62.49;98699.84;6761981;29;20208;-75
2020/12/15 18:29:30;;;;;;;12.73;10.10;;;;;;;13.97;62.71;98705.81;6760990;29;20246;-77
2020/12/15 18:32:52;;;;;;;35.90;26.00;;;;;;;13.95;63.40;98713.38;6761260;29;20246;-78
2020/12/15 18:36:14;;;;;;;22.13;17.07;;;;;;;13.27;65.38;98719.19;6762281;29;20641;-77
2020/12/15 18:39:35;;;;;;;52.90;33.30;;;;;;;13.97;63.73;98704.97;6762774;29;20588;-78
2020/12/15 18:42:57;;;;;;;33.93;24.53;;;;;;;13.64;64.15;98691.06;6761371;29;20236;-78
2020/12/15 18:46:18;;;;;;;47.27;32.37;;;;;;;14.13;63.01;98713.31;6762285;29;20211;-77
2020/12/15 18:49:40;;;;;;;37.27;26.13;;;;;;;14.26;62.18;98701.47;6760824;29;20669;-77
2020/12/15 18:53:01;;;;;;;17.70;15.20;;;;;;;14.00;62.55;98712.69;6759125;29;20250;-77
2020/12/15 18:56:23;;;;;;;16.13;13.87;;;;;;;14.16;62.43;98715.56;6761753;29;20231;-77
2020/12/15 19:00:02;;;;;;;14.83;13.13;;;;;;;14.09;62.33;98722.16;6760316;29;20267;-78
2020/12/15 19:03:25;;;;;;;23.90;18.37;;;;;;;13.49;63.93;98721.22;6762747;29;20228;-77
2020/12/15 19:06:47;;;;;;;24.67;22.03;;;;;;;14.02;62.91;98708.69;6761303;29;20275;-77
2020/12/15 19:10:08;;;;;;;21.47;17.47;;;;;;;13.94;62.38;98713.59;6761172;29;20215;-77
2020/12/15 19:13:30;;;;;;;16.90;15.10;;;;;;;14.14;62.11;98714.13;6761130;29;20232;-77
2020/12/15 19:16:51;;;;;;;19.00;15.87;;;;;;;14.06;62.02;98696.34;6762473;29;20325;-77
2020/12/15 19:20:12;;;;;;;18.50;13.97;;;;;;;14.22;61.97;98714.69;6758040;29;20740;-78
2020/12/15 19:23:34;;;;;;;15.73;12.87;;;;;;;14.13;62.29;98709.78;6755851;29;20243;-77
2020/12/15 19:26:56;;;;;;;13.97;12.50;;;;;;;14.19;61.98;98711.59;6757572;29;20232;-78
2020/12/15 19:30:18;;;;;;;16.43;12.30;;;;;;;13.89;62.66;98705.31;6748391;29;20212;-78
2020/12/15 19:33:39;;;;;;;15.90;13.17;;;;;;;13.87;62.57;98710.94;6760512;29;20208;-77
2020/12/15 19:37:00;;;;;;;20.53;14.23;;;;;;;13.87;62.77;98705.53;6760899;29;20234;-77
2020/12/15 19:40:22;;;;;;;15.43;12.83;;;;;;;13.87;62.46;98699.31;6760530;29;20208;-78
2020/12/15 19:43:44;;;;;;;17.37;14.90;;;;;;;13.57;63.07;98687.59;6761283;29;20321;-78
2020/12/15 19:47:06;;;;;;;18.03;15.00;;;;;;;13.72;62.90;98688.03;6760796;29;20235;-77
2020/12/15 19:50:27;;;;;;;20.27;16.43;;;;;;;13.57;63.40;98720.91;6760426;29;20222;-77
2020/12/15 19:53:48;;;;;;;15.73;14.00;;;;;;;13.91;62.80;98700.47;6763231;29;20219;-79
2020/12/15 19:57:10;;;;;;;13.10;11.70;;;;;;;13.99;62.04;98713.72;6757508;29;20231;-79
2020/12/15 20:00:32;;;;;;;15.83;14.07;;;;;;;13.61;62.88;98702.31;6759330;29;20713;-78
2020/12/15 20:03:54;;;;;;;14.00;11.77;;;;;;;13.63;62.64;98721.91;6762371;29;20219;-78
2020/12/15 20:07:15;;;;;;;14.43;12.87;;;;;;;13.61;62.39;98724.00;6762578;29;20601;-79
2020/12/15 20:10:36;;;;;;;15.40;11.10;;;;;;;13.77;61.96;98728.81;6762264;29;20227;-80
2020/12/15 20:13:58;;;;;;;14.43;12.53;;;;;;;13.72;61.89;98726.78;6762381;29;20696;-79